Time;durP1;ratioP1;P1;durP2;ratioP2;P2;SDS_P1;SDS_P2;PMS_P1;PMS_P2;Temp;Humidity;BMP_temperature;BMP_pressure;BME280_temperature;BME280_humidity;BME280_pressure;Samples;Min_cycle;Max_cycle;Signal;HPM_P1;HPM_P2
2024/03/19 00:01:03;;;;;;;4.18;3.35;;;7.60;99.90;;;;;;5030821;28;20230;-74
2024/03/19 00:03:29;;;;;;;4.30;3.60;;;7.60;99.90;;;;;;5031135;28;20209;-74
2024/03/19 00:05:57;;;;;;;4.55;2.75;;;7.50;99.90;;;;;;5023079;28;20627;-74
2024/03/19 00:08:24;;;;;;;4.13;3.22;;;7.40;99.90;;;;;;5031427;28;20206;-74
2024/03/19 00:10:52;;;;;;;4.10;2.95;;;7.30;99.90;;;;;;5030182;28;20691;-74
2024/03/19 00:13:19;;;;;;;3.40;3.10;;;7.20;99.90;;;;;;5030924;28;20613;-74
2024/03/19 00:15:46;;;;;;;3.00;2.80;;;7.20;99.90;;;;;;5030912;28;20230;-74
2024/03/19 00:18:12;;;;;;;3.00;2.70;;;7.10;99.90;;;;;;5030902;28;20219;-74
2024/03/19 00:20:39;;;;;;;5.38;2.95;;;7.10;99.90;;;;;;5030385;28;20703;-74
2024/03/19 00:23:07;;;;;;;3.53;2.75;;;7.00;99.90;;;;;;5030254;28;20738;-74
2024/03/19 00:25:35;;;;;;;5.15;2.80;;;7.00;99.90;;;;;;5030736;28;20602;-74
2024/03/19 00:28:03;;;;;;;3.38;2.80;;;6.90;99.90;;;;;;5031155;28;20725;-74
2024/03/19 00:30:29;;;;;;;4.47;3.00;;;6.90;99.90;;;;;;5030817;28;20234;-74
2024/03/19 00:32:56;;;;;;;2.63;2.33;;;6.90;99.90;;;;;;5021856;28;20223;-74
2024/03/19 00:35:23;;;;;;;3.20;2.55;;;6.90;99.90;;;;;;5030710;28;20690;-74
2024/03/19 00:37:50;;;;;;;8.20;2.95;;;6.80;99.90;;;;;;5030454;28;20428;-74
2024/03/19 00:40:19;;;;;;;3.88;3.50;;;6.80;99.90;;;;;;5030457;28;20209;-74
2024/03/19 00:42:46;;;;;;;4.60;2.63;;;6.70;99.90;;;;;;5029936;28;20229;-74
2024/03/19 00:45:12;;;;;;;3.28;2.97;;;6.70;99.90;;;;;;5030995;28;20212;-74
2024/03/19 00:47:39;;;;;;;2.58;2.38;;;6.80;99.90;;;;;;5030036;28;20621;-74
2024/03/19 00:50:07;;;;;;;4.63;3.00;;;6.80;99.90;;;;;;5029882;28;20663;-74
2024/03/19 00:52:34;;;;;;;2.90;2.53;;;6.80;99.90;;;;;;5030167;28;20232;-74
2024/03/19 00:55:00;;;;;;;3.78;3.22;;;6.80;99.90;;;;;;5030306;28;20624;-74
2024/03/19 00:57:28;;;;;;;3.97;2.80;;;6.70;99.90;;;;;;5030573;28;20200;-74
2024/03/19 00:59:55;;;;;;;2.90;2.60;;;6.80;99.90;;;;;;5029780;28;20588;-73
2024/03/19 01:02:22;;;;;;;3.13;2.83;;;6.70;99.90;;;;;;5030571;28;20292;-74
2024/03/19 01:04:49;;;;;;;3.30;2.75;;;6.80;99.90;;;;;;5030238;28;20297;-74
2024/03/19 01:07:18;;;;;;;3.10;2.80;;;6.80;99.90;;;;;;5030793;28;20292;-74
2024/03/19 01:09:44;;;;;;;4.55;3.33;;;6.70;99.90;;;;;;5030209;28;20202;-74
2024/03/19 01:12:11;;;;;;;3.88;2.70;;;6.80;99.90;;;;;;5030430;28;20230;-74
2024/03/19 01:14:40;;;;;;;3.65;3.15;;;6.80;99.90;;;;;;5030655;28;20694;-74
2024/03/19 01:17:07;;;;;;;2.78;2.58;;;6.80;99.90;;;;;;5030653;28;20627;-74
2024/03/19 01:19:33;;;;;;;3.60;3.05;;;6.80;99.90;;;;;;5030281;28;20206;-74
2024/03/19 01:22:00;;;;;;;2.95;2.65;;;6.80;99.90;;;;;;5029935;28;20670;-74
2024/03/19 01:24:27;;;;;;;2.75;2.53;;;6.80;99.90;;;;;;5031098;28;20581;-74
2024/03/19 01:26:54;;;;;;;3.95;3.00;;;6.80;99.90;;;;;;5030492;28;20229;-74
2024/03/19 01:29:20;;;;;;;4.03;3.00;;;6.80;99.90;;;;;;5030767;28;20210;-73
2024/03/19 01:31:48;;;;;;;4.75;3.05;;;6.80;99.90;;;;;;5029446;28;20717;-74
2024/03/19 01:34:15;;;;;;;3.10;2.90;;;6.80;99.90;;;;;;5030534;28;20210;-74
2024/03/19 01:36:42;;;;;;;4.65;3.00;;;6.80;99.90;;;;;;5030240;28;20208;-74
2024/03/19 01:39:09;;;;;;;4.00;3.03;;;6.80;99.90;;;;;;5030344;28;20218;-74
2024/03/19 01:41:36;;;;;;;2.90;2.60;;;6.80;99.90;;;;;;5029760;28;20663;-74
2024/03/19 01:44:03;;;;;;;3.40;2.90;;;6.80;99.90;;;;;;5030197;28;20287;-74
2024/03/19 01:46:29;;;;;;;3.70;3.03;;;6.70;99.90;;;;;;5030420;28;20222;-74
2024/03/19 01:48:59;;;;;;;5.43;2.35;;;6.70;99.90;;;;;;5022163;28;20378;-74
2024/03/19 01:51:26;;;;;;;3.72;2.80;;;6.70;99.90;;;;;;5030025;28;20221;-74
2024/03/19 01:53:54;;;;;;;3.50;2.70;;;6.60;99.90;;;;;;5029826;28;20217;-74
2024/03/19 01:56:21;;;;;;;3.25;2.88;;;6.60;99.90;;;;;;5030367;28;20207;-74
2024/03/19 01:58:48;;;;;;;4.18;2.65;;;6.50;99.90;;;;;;5029860;28;20207;-74
2024/03/19 02:01:16;;;;;;;3.67;3.25;;;6.50;99.90;;;;;;5029941;28;20210;-74
2024/03/19 02:03:43;;;;;;;4.40;2.65;;;6.40;99.90;;;;;;5030097;28;20206;-74
2024/03/19 02:06:12;;;;;;;2.60;2.40;;;6.40;99.90;;;;;;5030365;28;20268;-74
2024/03/19 02:08:38;;;;;;;3.63;2.90;;;6.30;99.90;;;;;;5030252;28;20211;-74
2024/03/19 02:11:06;;;;;;;7.47;3.80;;;6.30;99.90;;;;;;5031870;28;20573;-73
2024/03/19 02:13:32;;;;;;;3.03;2.70;;;6.30;99.90;;;;;;5033760;28;20247;-74
2024/03/19 02:15:59;;;;;;;3.83;2.97;;;6.20;99.90;;;;;;5033388;28;20202;-73
2024/03/19 02:18:26;;;;;;;4.03;2.85;;;6.10;99.90;;;;;;5033538;28;20701;-73
2024/03/19 02:20:52;;;;;;;3.63;3.28;;;6.10;99.90;;;;;;5032972;28;20296;-74
2024/03/19 02:23:20;;;;;;;4.10;3.70;;;6.10;99.90;;;;;;5033263;28;20229;-72
2024/03/19 02:25:47;;;;;;;3.60;2.85;;;6.00;99.90;;;;;;5033215;28;20209;-71
2024/03/19 02:28:14;;;;;;;3.83;2.90;;;6.00;99.90;;;;;;5033372;28;20205;-72
2024/03/19 02:30:40;;;;;;;3.05;2.50;;;6.00;99.90;;;;;;5033071;28;20228;-72
2024/03/19 02:33:07;;;;;;;3.28;2.97;;;5.90;99.90;;;;;;5032640;28;20600;-72
2024/03/19 02:35:34;;;;;;;3.20;2.90;;;5.90;99.90;;;;;;5033612;28;20206;-71
2024/03/19 02:38:01;;;;;;;3.10;2.90;;;5.90;99.90;;;;;;5032972;28;20209;-72
2024/03/19 02:40:29;;;;;;;4.50;2.80;;;5.80;99.90;;;;;;5033078;28;20285;-72
2024/03/19 02:42:55;;;;;;;3.08;2.40;;;5.70;99.90;;;;;;5024428;28;20230;-72
2024/03/19 02:45:23;;;;;;;3.38;2.58;;;5.70;99.90;;;;;;5033149;28;20212;-74
2024/03/19 02:47:50;;;;;;;4.28;3.17;;;5.60;99.90;;;;;;5032575;28;20230;-74
2024/03/19 02:50:16;;;;;;;3.72;2.47;;;5.60;99.90;;;;;;5032765;28;20205;-74
2024/03/19 02:52:43;;;;;;;4.75;3.53;;;5.60;99.90;;;;;;5032658;28;20588;-74
2024/03/19 02:55:10;;;;;;;3.67;3.15;;;5.50;99.90;;;;;;5032662;28;20220;-74
2024/03/19 02:57:39;;;;;;;3.33;3.03;;;5.50;99.90;;;;;;5032913;28;20205;-74
2024/03/19 03:00:09;;;;;;;4.95;3.10;;;5.40;99.90;;;;;;5032346;28;20212;-74
2024/03/19 03:02:37;;;;;;;6.30;3.22;;;5.40;99.90;;;;;;5032508;28;20331;-74
2024/03/19 03:05:05;;;;;;;3.88;2.92;;;5.40;99.90;;;;;;5032458;28;20594;-74
2024/03/19 03:07:31;;;;;;;4.13;2.90;;;5.30;99.90;;;;;;5032746;28;20222;-74
2024/03/19 03:09:58;;;;;;;5.40;3.45;;;5.30;99.90;;;;;;5032084;28;20212;-74
2024/03/19 03:12:25;;;;;;;4.18;3.08;;;5.30;99.90;;;;;;5032222;28;20312;-74
2024/03/19 03:14:53;;;;;;;4.38;2.67;;;5.30;99.90;;;;;;5032384;28;20217;-74
2024/03/19 03:17:19;;;;;;;3.72;3.15;;;5.20;99.90;;;;;;5032356;28;20602;-74
2024/03/19 03:19:46;;;;;;;3.15;2.67;;;5.20;99.90;;;;;;5032126;28;20702;-74
2024/03/19 03:22:13;;;;;;;4.28;2.90;;;5.10;99.90;;;;;;5031652;28;20217;-74
2024/03/19 03:24:40;;;;;;;3.30;2.92;;;5.10;99.90;;;;;;5032492;28;20206;-74
2024/03/19 03:27:07;;;;;;;4.55;3.25;;;5.10;99.90;;;;;;5031998;28;20284;-74
2024/03/19 03:29:36;;;;;;;3.33;2.92;;;5.10;99.90;;;;;;5032052;28;20213;-74
2024/03/19 03:32:04;;;;;;;3.65;2.83;;;5.10;99.90;;;;;;5031600;28;20232;-74
2024/03/19 03:34:31;;;;;;;5.38;3.55;;;5.10;99.90;;;;;;5032253;28;20202;-74
2024/03/19 03:36:58;;;;;;;3.55;2.90;;;5.10;99.90;;;;;;5031878;28;20198;-73
2024/03/19 03:39:25;;;;;;;4.07;3.25;;;5.00;99.90;;;;;;5032019;28;20202;-74
2024/03/19 03:41:51;;;;;;;3.80;3.05;;;5.00;99.90;;;;;;5031672;28;20226;-74
2024/03/19 03:44:18;;;;;;;3.45;3.05;;;5.00;99.90;;;;;;5032051;28;20662;-74
2024/03/19 03:46:47;;;;;;;4.97;2.80;;;5.00;99.90;;;;;;5031767;28;20885;-74
2024/03/19 03:49:15;;;;;;;3.67;2.67;;;5.00;99.90;;;;;;5031613;28;20564;-74
2024/03/19 03:51:42;;;;;;;8.10;3.50;;;4.90;99.90;;;;;;5029962;28;20262;-73
2024/03/19 03:54:09;;;;;;;3.25;2.75;;;4.90;99.90;;;;;;5030194;28;20213;-73
2024/03/19 03:56:35;;;;;;;3.47;3.17;;;4.90;99.90;;;;;;5027928;28;20574;-74
2024/03/19 03:59:03;;;;;;;4.35;3.28;;;4.80;99.90;;;;;;5019388;28;20738;-74
2024/03/19 04:01:30;;;;;;;5.03;2.70;;;4.80;99.90;;;;;;5019086;28;20226;-75
2024/03/19 04:03:56;;;;;;;4.18;3.38;;;4.70;99.90;;;;;;5019985;28;20699;-75
2024/03/19 04:06:24;;;;;;;3.50;3.20;;;4.70;99.90;;;;;;5021479;28;20214;-74
2024/03/19 04:08:51;;;;;;;3.35;2.90;;;4.60;99.90;;;;;;5023194;28;20219;-74
2024/03/19 04:11:18;;;;;;;3.92;3.10;;;4.60;99.90;;;;;;5027708;28;20624;-74
2024/03/19 04:13:45;;;;;;;4.25;2.70;;;4.60;99.90;;;;;;5026360;28;20218;-75
2024/03/19 04:16:12;;;;;;;3.20;2.65;;;4.60;99.90;;;;;;5024217;28;20697;-74
2024/03/19 04:18:39;;;;;;;3.67;2.42;;;4.60;99.90;;;;;;5026721;28;20208;-74
2024/03/19 04:21:06;;;;;;;3.28;2.70;;;4.60;99.90;;;;;;5024749;28;20208;-74
2024/03/19 04:23:34;;;;;;;3.42;2.58;;;4.50;99.90;;;;;;5026170;28;20205;-74
2024/03/19 04:26:00;;;;;;;2.60;2.40;;;4.50;99.90;;;;;;5019852;28;20209;-74
2024/03/19 04:28:27;;;;;;;3.30;2.53;;;4.50;99.90;;;;;;5020202;28;20694;-74
2024/03/19 04:30:53;;;;;;;2.95;2.47;;;4.50;99.90;;;;;;5018408;28;20210;-74
2024/03/19 04:33:19;;;;;;;3.93;2.50;;;4.40;99.90;;;;;;5018451;28;20276;-75
2024/03/19 04:35:46;;;;;;;4.70;3.30;;;4.40;99.90;;;;;;5023304;28;20919;-73
2024/03/19 04:38:15;;;;;;;3.63;2.63;;;4.40;99.90;;;;;;5025943;28;20464;-73
2024/03/19 04:40:43;;;;;;;4.38;2.83;;;4.40;99.90;;;;;;5030547;28;20208;-73
2024/03/19 04:43:10;;;;;;;2.88;2.50;;;4.30;99.90;;;;;;5030264;28;20239;-73
2024/03/19 04:45:36;;;;;;;3.03;2.15;;;4.30;99.90;;;;;;5030954;28;20282;-73
2024/03/19 04:48:04;;;;;;;3.63;2.20;;;4.30;99.90;;;;;;5030371;28;20225;-73
2024/03/19 04:50:30;;;;;;;2.95;2.25;;;4.30;99.90;;;;;;5030588;28;20200;-72
2024/03/19 04:52:57;;;;;;;2.45;2.08;;;4.20;99.90;;;;;;5030551;28;20229;-73
2024/03/19 04:55:24;;;;;;;3.88;2.30;;;4.20;99.90;;;;;;5030839;28;20206;-72
2024/03/19 04:57:52;;;;;;;5.85;2.63;;;4.20;99.90;;;;;;5030662;28;20301;-73
2024/03/19 05:00:19;;;;;;;2.67;2.38;;;4.20;99.90;;;;;;5030337;28;20232;-73
2024/03/19 05:02:45;;;;;;;4.43;2.28;;;4.20;99.90;;;;;;5030588;28;20598;-73
2024/03/19 05:05:12;;;;;;;3.75;2.42;;;4.20;99.90;;;;;;5030724;28;20215;-73
2024/03/19 05:07:40;;;;;;;5.32;3.55;;;4.20;99.90;;;;;;5030753;28;20225;-73
2024/03/19 05:10:08;;;;;;;3.20;2.65;;;4.10;99.90;;;;;;5030300;28;20208;-73
2024/03/19 05:12:35;;;;;;;2.80;2.40;;;4.10;99.90;;;;;;5030379;28;20235;-73
2024/03/19 05:15:06;;;;;;;2.20;2.00;;;4.10;99.90;;;;;;5030539;28;20213;-73
2024/03/19 05:17:32;;;;;;;2.42;1.85;;;4.10;99.90;;;;;;5030857;28;20292;-73
2024/03/19 05:19:59;;;;;;;3.45;2.58;;;4.10;99.90;;;;;;5030310;28;20669;-73
2024/03/19 05:22:26;;;;;;;4.13;2.92;;;4.10;99.90;;;;;;5029822;28;20225;-73
2024/03/19 05:24:53;;;;;;;2.60;2.40;;;4.00;99.90;;;;;;5030708;28;20217;-73
2024/03/19 05:27:20;;;;;;;2.92;2.50;;;4.00;99.90;;;;;;5030045;28;20608;-73
2024/03/19 05:29:47;;;;;;;3.83;2.63;;;4.00;99.90;;;;;;5030208;28;20216;-73
2024/03/19 05:32:15;;;;;;;2.85;2.60;;;3.90;99.90;;;;;;5032462;28;20232;-73
2024/03/19 05:34:42;;;;;;;5.00;2.65;;;3.90;99.90;;;;;;5031040;28;20277;-74
2024/03/19 05:37:09;;;;;;;3.70;2.60;;;3.90;99.90;;;;;;5031113;28;20202;-73
2024/03/19 05:39:35;;;;;;;3.28;2.55;;;3.90;99.90;;;;;;5030396;28;20217;-73
2024/03/19 05:42:02;;;;;;;2.55;2.35;;;3.90;99.90;;;;;;5029910;28;20241;-73
2024/03/19 05:44:29;;;;;;;3.80;2.35;;;3.90;99.90;;;;;;5030567;28;20216;-73
2024/03/19 05:46:56;;;;;;;3.53;2.85;;;3.90;99.90;;;;;;5026188;28;20233;-73
2024/03/19 05:49:25;;;;;;;5.93;3.60;;;3.90;99.90;;;;;;5033880;28;20217;-73
2024/03/19 05:51:52;;;;;;;4.18;2.85;;;3.90;99.90;;;;;;5033888;28;20226;-73
2024/03/19 05:54:18;;;;;;;2.30;2.10;;;3.90;99.90;;;;;;5033675;28;20212;-73
2024/03/19 05:56:45;;;;;;;2.60;1.90;;;3.90;99.90;;;;;;5034095;28;20212;-73
2024/03/19 05:59:12;;;;;;;2.45;2.25;;;4.00;99.90;;;;;;5033517;28;20209;-73
2024/03/19 06:01:38;;;;;;;3.00;2.30;;;4.00;99.90;;;;;;5033654;28;20296;-73
2024/03/19 06:04:05;;;;;;;3.20;2.40;;;4.00;99.90;;;;;;5034019;28;20206;-73
2024/03/19 06:06:33;;;;;;;4.78;2.70;;;4.00;99.90;;;;;;5030600;28;20613;-73
2024/03/19 06:08:59;;;;;;;3.85;2.83;;;4.10;99.90;;;;;;5033792;28;20228;-73
2024/03/19 06:11:26;;;;;;;3.37;2.50;;;4.10;99.90;;;;;;5030814;28;20224;-73
2024/03/19 06:13:53;;;;;;;2.83;2.25;;;4.10;99.90;;;;;;5033656;28;20474;-73
2024/03/19 06:16:19;;;;;;;3.53;2.00;;;4.20;99.90;;;;;;5033452;28;20248;-73
2024/03/19 06:18:46;;;;;;;2.88;2.50;;;4.20;99.90;;;;;;5033731;28;20216;-73
2024/03/19 06:21:13;;;;;;;3.08;2.78;;;4.30;99.90;;;;;;5032914;28;20208;-73
2024/03/19 06:23:41;;;;;;;2.97;2.78;;;4.30;99.90;;;;;;5033566;28;20204;-73
2024/03/19 06:26:08;;;;;;;3.28;2.55;;;4.40;99.90;;;;;;5033413;28;20220;-72
2024/03/19 06:28:35;;;;;;;2.80;2.40;;;4.40;99.90;;;;;;5033140;28;20232;-73
2024/03/19 06:31:01;;;;;;;2.83;2.63;;;4.50;99.90;;;;;;5033402;28;20238;-73
2024/03/19 06:33:28;;;;;;;2.88;2.00;;;4.60;99.90;;;;;;5033055;28;20230;-73
2024/03/19 06:35:55;;;;;;;3.50;2.05;;;4.70;99.90;;;;;;5033517;28;20213;-73
2024/03/19 06:38:21;;;;;;;3.63;2.08;;;4.80;99.90;;;;;;5033290;28;20209;-73
2024/03/19 06:40:49;;;;;;;2.35;2.15;;;4.90;99.90;;;;;;5033039;28;20228;-73
2024/03/19 06:43:16;;;;;;;2.28;2.00;;;5.00;99.90;;;;;;5032767;28;20240;-73
2024/03/19 06:45:43;;;;;;;2.47;2.22;;;5.10;99.90;;;;;;5033638;28;20206;-74
2024/03/19 06:48:09;;;;;;;2.50;2.30;;;5.20;99.90;;;;;;5033156;28;20222;-73
2024/03/19 06:50:36;;;;;;;4.35;3.58;;;5.30;99.90;;;;;;5031015;28;20227;-74
2024/03/19 06:53:03;;;;;;;4.60;2.80;;;5.40;99.90;;;;;;5032948;28;20229;-73
2024/03/19 06:55:31;;;;;;;3.28;2.55;;;5.50;99.90;;;;;;5032336;28;20205;-73
2024/03/19 06:57:59;;;;;;;4.32;3.20;;;5.60;99.90;;;;;;5024917;28;20213;-73
2024/03/19 07:00:26;;;;;;;3.15;2.85;;;5.70;99.90;;;;;;5032930;28;20218;-73
2024/03/19 07:02:54;;;;;;;4.75;3.55;;;5.90;99.90;;;;;;5032676;28;20729;-73
2024/03/19 07:05:22;;;;;;;3.38;2.95;;;6.00;99.90;;;;;;5032864;28;20214;-73
2024/03/19 07:07:50;;;;;;;2.95;2.63;;;6.20;99.90;;;;;;5033034;28;20312;-74
2024/03/19 07:10:17;;;;;;;3.58;3.28;;;6.50;99.90;;;;;;5031960;28;20210;-74
2024/03/19 07:12:44;;;;;;;4.35;3.33;;;6.80;99.90;;;;;;5032896;28;20222;-73
2024/03/19 07:15:14;;;;;;;3.90;3.30;;;7.20;99.90;;;;;;5032618;28;20280;-74
2024/03/19 07:17:42;;;;;;;4.00;3.38;;;7.60;99.90;;;;;;5027935;28;20686;-73
2024/03/19 07:20:12;;;;;;;3.40;3.10;;;8.20;99.90;;;;;;5031509;28;20215;-73
2024/03/19 07:22:40;;;;;;;4.43;2.90;;;8.60;99.90;;;;;;5029770;28;20253;-74
2024/03/19 07:25:08;;;;;;;3.55;3.05;;;9.20;99.90;;;;;;5032401;28;20271;-74
2024/03/19 07:27:37;;;;;;;5.60;3.65;;;9.90;99.90;;;;;;5031928;28;20287;-74
2024/03/19 07:30:04;;;;;;;4.00;3.65;;;10.60;99.90;;;;;;5032835;28;20204;-73
2024/03/19 07:32:32;;;;;;;3.88;3.45;;;11.10;99.90;;;;;;5031694;28;20222;-72
2024/03/19 07:34:59;;;;;;;3.70;2.85;;;11.80;99.90;;;;;;5032380;28;20206;-74
2024/03/19 07:37:26;;;;;;;3.95;3.17;;;12.30;99.90;;;;;;5032378;28;20206;-74
2024/03/19 07:39:56;;;;;;;4.93;3.38;;;12.50;99.90;;;;;;5032215;28;20232;-74
2024/03/19 07:42:23;;;;;;;2.85;2.58;;;12.70;99.90;;;;;;5031757;28;20226;-74
2024/03/19 07:44:51;;;;;;;2.80;2.25;;;12.80;99.90;;;;;;5032018;28;20217;-74
2024/03/19 07:47:18;;;;;;;2.35;2.15;;;13.00;99.90;;;;;;5031926;28;20213;-74
2024/03/19 07:49:46;;;;;;;3.13;2.67;;;13.20;99.90;;;;;;5029597;28;20216;-74
2024/03/19 07:52:13;;;;;;;2.95;2.30;;;13.40;99.90;;;;;;5026074;28;20476;-72
2024/03/19 07:54:40;;;;;;;3.60;2.70;;;13.50;99.90;;;;;;5031478;28;20679;-72
2024/03/19 07:57:07;;;;;;;3.60;2.70;;;13.80;99.90;;;;;;5031940;28;20860;-72
2024/03/19 07:59:35;;;;;;;2.90;2.70;;;14.00;99.90;;;;;;5031133;28;20829;-72
2024/03/19 08:02:01;;;;;;;4.03;2.33;;;14.20;99.90;;;;;;5031419;28;20538;-72
2024/03/19 08:04:27;;;;;;;2.53;2.33;;;14.40;99.90;;;;;;5031440;28;20460;-72
2024/03/19 08:06:56;;;;;;;2.97;2.63;;;14.80;99.90;;;;;;5031605;28;20583;-72
2024/03/19 08:09:23;;;;;;;2.17;1.97;;;15.20;99.90;;;;;;5030802;28;20492;-72
2024/03/19 08:11:50;;;;;;;2.40;2.20;;;15.50;99.90;;;;;;5030830;28;20564;-72
2024/03/19 08:14:16;;;;;;;2.50;2.30;;;15.60;99.90;;;;;;5031696;28;20474;-72
2024/03/19 08:16:43;;;;;;;2.60;2.40;;;15.80;99.90;;;;;;5027600;28;20804;-73
2024/03/19 08:19:10;;;;;;;2.87;2.50;;;16.00;99.90;;;;;;5031458;28;20547;-72
2024/03/19 08:21:38;;;;;;;2.50;2.20;;;16.20;99.90;;;;;;5030417;28;20472;-72
2024/03/19 08:24:06;;;;;;;2.47;2.23;;;16.10;99.90;;;;;;5031416;28;20457;-72
2024/03/19 08:26:35;;;;;;;3.43;2.07;;;15.80;99.90;;;;;;5031062;28;20467;-72
2024/03/19 08:29:01;;;;;;;2.47;2.20;;;15.90;99.90;;;;;;5031356;28;20538;-72
2024/03/19 08:31:27;;;;;;;2.20;2.00;;;15.80;99.90;;;;;;5030655;28;20476;-72
2024/03/19 08:33:54;;;;;;;2.23;2.00;;;15.80;99.90;;;;;;5019045;28;20467;-73
2024/03/19 08:36:21;;;;;;;2.20;2.00;;;15.80;99.90;;;;;;5031368;28;20460;-74
2024/03/19 08:38:48;;;;;;;2.20;1.70;;;15.80;99.90;;;;;;5028452;28;20694;-74
2024/03/19 08:41:17;;;;;;;2.10;1.90;;;16.00;99.90;;;;;;5034522;28;20475;-75
2024/03/19 08:43:50;;;;;;;2.03;1.93;;;16.50;99.90;;;;;;5030821;28;20496;-74
2024/03/19 08:46:19;;;;;;;1.50;1.40;;;17.20;99.90;;;;;;5031188;28;20553;-74
2024/03/19 08:48:48;;;;;;;2.13;1.93;;;17.80;99.90;;;;;;5030272;28;20488;-74
2024/03/19 08:51:15;;;;;;;1.73;1.63;;;18.20;99.90;;;;;;5030786;28;20839;-74
2024/03/19 08:53:42;;;;;;;1.90;1.63;;;18.10;99.90;;;;;;5030766;28;20460;-74
2024/03/19 08:56:10;;;;;;;2.77;1.47;;;18.20;99.90;;;;;;5031499;28;20555;-74
2024/03/19 08:58:39;;;;;;;1.73;1.60;;;18.20;99.90;;;;;;5031050;28;20468;-74
2024/03/19 09:01:06;;;;;;;1.70;1.60;;;18.10;99.90;;;;;;5031334;28;20467;-74
2024/03/19 09:03:34;;;;;;;1.40;1.30;;;18.20;99.90;;;;;;5030576;28;20461;-74
2024/03/19 09:06:01;;;;;;;1.50;1.30;;;18.00;99.90;;;;;;5030962;28;20463;-74
2024/03/19 09:08:29;;;;;;;1.60;1.50;;;17.80;99.90;;;;;;5030186;28;20514;-74
2024/03/19 09:10:56;;;;;;;1.50;1.40;;;17.90;99.90;;;;;;5030400;28;20464;-74
2024/03/19 09:13:24;;;;;;;1.63;1.53;;;17.90;99.90;;;;;;5028603;28;20486;-74
2024/03/19 09:15:52;;;;;;;2.43;2.00;;;17.90;99.90;;;;;;5027364;28;20465;-74
2024/03/19 09:18:19;;;;;;;2.20;1.97;;;18.00;99.90;;;;;;5030795;28;20471;-77
2024/03/19 09:20:47;;;;;;;2.00;1.77;;;18.10;99.90;;;;;;5038645;28;20463;-78
2024/03/19 09:23:15;;;;;;;4.57;2.10;;;18.00;99.90;;;;;;5041570;28;20476;-77
2024/03/19 09:25:42;;;;;;;2.20;2.00;;;17.70;99.90;;;;;;5039560;28;20456;-78
2024/03/19 09:28:09;;;;;;;2.50;2.30;;;17.30;99.90;;;;;;5041952;28;20904;-78
2024/03/19 09:30:37;;;;;;;2.20;1.93;;;16.90;99.90;;;;;;5041643;28;20475;-78
2024/03/19 09:33:06;;;;;;;3.70;2.40;;;16.60;99.90;;;;;;5037882;28;20515;-79
2024/03/19 09:35:34;;;;;;;2.60;2.40;;;16.20;99.90;;;;;;5028472;28;20534;-79
2024/03/19 09:38:02;;;;;;;2.60;2.40;;;16.10;99.90;;;;;;5027385;28;20496;-79
2024/03/19 09:40:30;;;;;;;2.40;2.03;;;16.00;99.90;;;;;;5021996;28;20545;-79
2024/03/19 09:42:58;;;;;;;2.07;1.90;;;15.70;99.90;;;;;;5014678;28;20937;-78
2024/03/19 09:45:32;;;;;;;2.30;2.10;;;15.50;99.90;;;;;;5040828;28;20936;-78
2024/03/19 09:48:00;;;;;;;2.70;2.50;;;15.40;99.90;;;;;;5030656;28;20464;-79
2024/03/19 09:50:29;;;;;;;2.40;2.20;;;15.40;99.90;;;;;;5045852;28;20513;-76
2024/03/19 09:52:57;;;;;;;2.30;2.10;;;15.30;99.90;;;;;;5026714;28;20480;-77
2024/03/19 09:55:26;;;;;;;2.73;2.53;;;15.50;99.90;;;;;;5049565;28;20459;-78
2024/03/19 09:57:55;;;;;;;2.40;2.20;;;15.90;99.90;;;;;;5052453;28;20459;-78
2024/03/19 10:00:26;;;;;;;3.17;2.47;;;16.80;99.90;;;;;;5041765;28;20447;-78
2024/03/19 10:02:54;;;;;;;2.77;2.40;;;18.10;99.90;;;;;;5048855;28;20912;-78
2024/03/19 10:05:22;;;;;;;2.30;2.10;;;19.30;99.90;;;;;;5028978;28;20502;-78
2024/03/19 10:07:53;;;;;;;2.17;1.93;;;20.30;99.90;;;;;;5051910;28;21051;-78
2024/03/19 10:10:20;;;;;;;3.80;2.10;;;20.90;99.90;;;;;;5053568;28;20479;-78
2024/03/19 10:12:47;;;;;;;2.07;1.93;;;21.70;99.90;;;;;;5050250;28;20848;-78
2024/03/19 10:15:22;;;;;;;2.47;2.00;;;22.00;99.90;;;;;;5043153;28;21004;-78
2024/03/19 10:17:50;;;;;;;2.67;1.90;;;22.30;99.90;;;;;;5053011;28;20458;-78
2024/03/19 10:20:17;;;;;;;1.90;1.80;;;22.10;99.90;;;;;;5039060;28;20519;-78
2024/03/19 10:22:44;;;;;;;1.67;1.57;;;22.10;99.90;;;;;;5032517;28;20514;-78
2024/03/19 10:25:14;;;;;;;2.50;1.83;;;22.30;99.90;;;;;;5033576;28;20464;-78
2024/03/19 10:27:44;;;;;;;2.33;2.07;;;22.70;99.90;;;;;;5022942;28;20461;-79
2024/03/19 10:30:15;;;;;;;2.00;1.90;;;23.40;99.90;;;;;;5033223;28;21089;-78
2024/03/19 10:32:49;;;;;;;2.00;1.80;;;24.60;99.90;;;;;;5032580;28;20476;-79
2024/03/19 10:35:20;;;;;;;3.77;1.63;;;25.50;99.90;;;;;;5033060;28;20526;-78
2024/03/19 10:37:51;;;;;;;3.03;2.10;;;26.60;99.90;;;;;;5032773;28;20510;-79
2024/03/19 10:40:20;;;;;;;1.97;1.77;;;26.80;98.50;;;;;;5033583;28;20461;-79
2024/03/19 10:43:13;;;;;;;1.90;1.77;;;26.70;97.60;;;;;;5031991;28;20489;-79
2024/03/19 10:45:58;;;;;;;3.53;1.60;;;27.00;98.30;;;;;;5033519;28;20456;-78
2024/03/19 10:48:35;;;;;;;2.87;1.90;;;27.40;97.90;;;;;;5034054;28;20464;-79
2024/03/19 10:51:39;;;;;;;;;;;;;;;;;;;;;
2024/03/19 10:54:24;;;;;;;1.60;1.50;;;27.70;97.10;;;;;;4990628;28;20461;-78
2024/03/19 10:56:54;;;;;;;1.67;1.57;;;28.20;97.30;;;;;;5034135;28;21102;-79
2024/03/19 10:59:46;;;;;;;2.77;1.90;;;27.70;95.90;;;;;;5034736;28;20509;-79
2024/03/19 11:02:18;;;;;;;2.53;1.80;;;27.70;96.50;;;;;;5027939;28;20519;-79
2024/03/19 11:04:54;;;;;;;1.67;1.57;;;27.70;95.80;;;;;;5035105;28;20526;-79
2024/03/19 11:07:39;;;;;;;1.47;1.37;;;28.10;95.20;;;;;;5035009;28;20466;-79
2024/03/19 11:10:22;;;;;;;1.40;1.30;;;28.20;94.80;;;;;;5030221;28;20809;-79
2024/03/19 11:12:56;;;;;;;2.50;1.73;;;28.30;94.00;;;;;;5036344;28;20480;-80
2024/03/19 11:15:23;;;;;;;2.03;1.70;;;28.00;94.40;;;;;;5037627;28;20496;-79
2024/03/19 11:17:50;;;;;;;1.53;1.40;;;27.90;93.40;;;;;;5036578;28;20464;-79
2024/03/19 11:20:17;;;;;;;2.13;1.93;;;28.00;93.40;;;;;;5036799;28;20484;-79
2024/03/19 11:22:47;;;;;;;2.00;1.60;;;28.40;94.10;;;;;;5037304;28;20539;-81
2024/03/19 11:25:16;;;;;;;1.10;1.00;;;28.70;92.50;;;;;;5037655;28;20472;-80
2024/03/19 11:27:48;;;;;;;1.70;1.57;;;28.60;92.50;;;;;;5038742;28;20464;-80
2024/03/19 11:30:18;;;;;;;1.77;1.67;;;28.40;92.50;;;;;;5038191;28;20514;-80
2024/03/19 11:32:48;;;;;;;2.53;1.53;;;28.00;92.30;;;;;;5036975;28;20512;-80
2024/03/19 11:35:19;;;;;;;1.30;1.20;;;27.20;91.70;;;;;;5037490;28;20467;-80
2024/03/19 11:37:47;;;;;;;1.53;1.27;;;24.80;94.30;;;;;;5037921;28;20832;-80
2024/03/19 11:40:14;;;;;;;1.27;1.17;;;24.00;95.80;;;;;;5032924;28;20860;-79
2024/03/19 11:42:42;;;;;;;3.17;1.70;;;24.30;96.60;;;;;;5033958;28;20487;-80
2024/03/19 11:45:14;;;;;;;1.50;1.30;;;24.60;95.30;;;;;;5034569;28;20472;-81
2024/03/19 11:47:44;;;;;;;1.63;1.53;;;25.10;95.80;;;;;;5038240;28;20461;-80
2024/03/19 11:50:16;;;;;;;4.77;1.60;;;25.80;95.70;;;;;;5038569;28;20457;-80
2024/03/19 11:52:43;;;;;;;2.37;1.40;;;26.20;94.50;;;;;;5039094;28;20485;-79
2024/03/19 11:55:10;;;;;;;1.70;1.60;;;26.50;93.50;;;;;;5038157;28;20462;-79
2024/03/19 11:57:37;;;;;;;1.57;1.47;;;26.00;93.30;;;;;;5033923;28;20487;-80
2024/03/19 12:00:10;;;;;;;1.37;1.27;;;25.20;95.00;;;;;;5034476;28;20898;-80
2024/03/19 12:02:37;;;;;;;1.80;1.70;;;25.30;95.20;;;;;;5035581;28;20992;-79
2024/03/19 12:05:06;;;;;;;1.60;1.30;;;25.60;94.30;;;;;;5035013;28;20464;-78
2024/03/19 12:07:32;;;;;;;2.10;1.90;;;25.40;95.50;;;;;;5033847;28;20870;-79
2024/03/19 12:09:59;;;;;;;2.67;2.10;;;25.20;96.00;;;;;;5034746;28;20460;-78
2024/03/19 12:12:27;;;;;;;3.43;2.37;;;24.30;96.20;;;;;;5033441;28;20484;-78
2024/03/19 12:14:55;;;;;;;3.67;2.20;;;23.20;97.00;;;;;;5035063;28;20956;-78
2024/03/19 12:17:23;;;;;;;2.87;2.20;;;22.20;98.00;;;;;;5033901;28;20653;-78
2024/03/19 12:19:51;;;;;;;2.67;2.10;;;21.20;99.00;;;;;;5036687;28;20495;-81
2024/03/19 12:22:19;;;;;;;2.30;1.90;;;20.30;99.50;;;;;;5035675;28;20515;-78
2024/03/19 12:24:45;;;;;;;2.33;2.13;;;19.60;99.90;;;;;;5034336;28;20988;-78
2024/03/19 12:27:12;;;;;;;2.60;2.40;;;19.10;99.90;;;;;;5037363;28;20464;-78
2024/03/19 12:29:40;;;;;;;2.50;2.23;;;18.80;99.90;;;;;;5037412;28;20460;-79
2024/03/19 12:32:25;;;;;;;2.80;2.20;;;18.80;99.90;;;;;;5037091;28;20491;-79
2024/03/19 12:34:59;;;;;;;2.80;2.17;;;18.90;99.90;;;;;;5040214;28;20477;-79
2024/03/19 12:37:27;;;;;;;3.53;1.90;;;19.00;99.90;;;;;;5035739;28;20991;-80
2024/03/19 12:39:53;;;;;;;2.53;2.23;;;19.40;99.90;;;;;;5038533;28;20495;-80
2024/03/19 12:42:21;;;;;;;1.83;1.73;;;20.50;99.90;;;;;;5033535;28;20996;-80
2024/03/19 12:44:50;;;;;;;1.73;1.40;;;21.50;99.90;;;;;;5032968;28;20468;-80
2024/03/19 12:47:18;;;;;;;2.47;2.23;;;22.40;98.50;;;;;;5033823;28;20571;-80
2024/03/19 12:49:45;;;;;;;2.90;2.13;;;23.20;98.00;;;;;;5031368;28;20487;-79
2024/03/19 12:52:12;;;;;;;2.73;1.83;;;23.40;97.50;;;;;;5031456;28;20488;-79
2024/03/19 12:54:40;;;;;;;1.83;1.63;;;24.00;96.60;;;;;;5036661;28;20905;-79
2024/03/19 12:57:07;;;;;;;2.03;1.83;;;24.10;96.70;;;;;;5032201;28;20840;-78